sensor_id;sensor_type;location;lat;lon;timestamp;pressure;altitude;pressure_sealevel;temperature;humidity
36014;BME280;22275;43.208;27.620;2023-04-28T00:01:24;101445.88;;;17.59;100.00
36014;BME280;22275;43.208;27.620;2023-04-28T00:03:51;101463.94;;;17.89;100.00
36014;BME280;22275;43.208;27.620;2023-04-28T00:06:22;101458.47;;;17.79;100.00
36014;BME280;22275;43.208;27.620;2023-04-28T00:08:50;101464.06;;;17.76;100.00
36014;BME280;22275;43.208;27.620;2023-04-28T00:11:17;101467.22;;;17.93;100.00
36014;BME280;22275;43.208;27.620;2023-04-28T00:13:46;101472.19;;;17.97;100.00
36014;BME280;22275;43.208;27.620;2023-04-28T00:16:13;101469.94;;;17.23;100.00
36014;BME280;22275;43.208;27.620;2023-04-28T00:18:40;101475.97;;;16.66;100.00
36014;BME280;22275;43.208;27.620;2023-04-28T00:21:08;101468.59;;;16.21;100.00
36014;BME280;22275;43.208;27.620;2023-04-28T00:23:36;101483.53;;;16.11;100.00
36014;BME280;22275;43.208;27.620;2023-04-28T00:26:04;101473.25;;;16.55;100.00
36014;BME280;22275;43.208;27.620;2023-04-28T00:28:31;101470.34;;;16.71;100.00
36014;BME280;22275;43.208;27.620;2023-04-28T00:30:58;101468.25;;;16.38;100.00
36014;BME280;22275;43.208;27.620;2023-04-28T00:33:25;101475.34;;;16.50;100.00
36014;BME280;22275;43.208;27.620;2023-04-28T00:35:58;101473.53;;;15.51;100.00
36014;BME280;22275;43.208;27.620;2023-04-28T00:38:25;101478.03;;;15.89;100.00
36014;BME280;22275;43.208;27.620;2023-04-28T00:40:54;101482.44;;;15.50;100.00
36014;BME280;22275;43.208;27.620;2023-04-28T00:43:22;101487.00;;;15.09;100.00
36014;BME280;22275;43.208;27.620;2023-04-28T00:45:49;101482.38;;;15.25;100.00
36014;BME280;22275;43.208;27.620;2023-04-28T00:48:17;101489.31;;;15.40;100.00
36014;BME280;22275;43.208;27.620;2023-04-28T00:50:46;101490.97;;;15.81;100.00
36014;BME280;22275;43.208;27.620;2023-04-28T00:53:14;101498.72;;;15.84;100.00
36014;BME280;22275;43.208;27.620;2023-04-28T00:55:41;101496.03;;;15.59;100.00
36014;BME280;22275;43.208;27.620;2023-04-28T00:58:10;101490.44;;;15.63;100.00
36014;BME280;22275;43.208;27.620;2023-04-28T01:00:37;101495.31;;;15.82;100.00
36014;BME280;22275;43.208;27.620;2023-04-28T01:03:05;101497.44;;;15.89;100.00
36014;BME280;22275;43.208;27.620;2023-04-28T01:05:32;101484.81;;;15.93;100.00
36014;BME280;22275;43.208;27.620;2023-04-28T01:08:01;101492.78;;;14.89;100.00
36014;BME280;22275;43.208;27.620;2023-04-28T01:10:29;101493.06;;;15.50;100.00
36014;BME280;22275;43.208;27.620;2023-04-28T01:12:57;101490.44;;;15.88;100.00
36014;BME280;22275;43.208;27.620;2023-04-28T01:15:26;101498.22;;;15.91;100.00
36014;BME280;22275;43.208;27.620;2023-04-28T01:17:54;101493.13;;;15.36;100.00
36014;BME280;22275;43.208;27.620;2023-04-28T01:20:22;101499.63;;;15.06;100.00
36014;BME280;22275;43.208;27.620;2023-04-28T01:22:49;101499.88;;;15.15;100.00
36014;BME280;22275;43.208;27.620;2023-04-28T01:25:18;101498.69;;;15.19;100.00
36014;BME280;22275;43.208;27.620;2023-04-28T01:27:46;101502.47;;;15.03;100.00
36014;BME280;22275;43.208;27.620;2023-04-28T01:30:13;101502.69;;;14.73;100.00
36014;BME280;22275;43.208;27.620;2023-04-28T01:32:41;101506.63;;;14.80;100.00
36014;BME280;22275;43.208;27.620;2023-04-28T01:35:09;101500.16;;;15.11;100.00
36014;BME280;22275;43.208;27.620;2023-04-28T01:37:36;101498.53;;;14.55;100.00
36014;BME280;22275;43.208;27.620;2023-04-28T01:40:04;101500.53;;;14.51;100.00
36014;BME280;22275;43.208;27.620;2023-04-28T01:42:33;101494.91;;;14.70;100.00
36014;BME280;22275;43.208;27.620;2023-04-28T01:45:00;101486.91;;;14.84;100.00
36014;BME280;22275;43.208;27.620;2023-04-28T01:47:30;101479.19;;;14.93;100.00
36014;BME280;22275;43.208;27.620;2023-04-28T01:49:58;101485.34;;;15.21;100.00
36014;BME280;22275;43.208;27.620;2023-04-28T01:52:26;101479.84;;;15.36;100.00
36014;BME280;22275;43.208;27.620;2023-04-28T01:54:53;101497.63;;;15.48;100.00
36014;BME280;22275;43.208;27.620;2023-04-28T01:57:24;101497.13;;;15.56;100.00
36014;BME280;22275;43.208;27.620;2023-04-28T01:59:55;101503.59;;;15.25;100.00
36014;BME280;22275;43.208;27.620;2023-04-28T02:02:23;101504.72;;;14.82;100.00
36014;BME280;22275;43.208;27.620;2023-04-28T02:04:52;101517.50;;;14.34;100.00
36014;BME280;22275;43.208;27.620;2023-04-28T02:07:19;101502.88;;;14.70;100.00
36014;BME280;22275;43.208;27.620;2023-04-28T02:09:46;101519.63;;;14.00;100.00
36014;BME280;22275;43.208;27.620;2023-04-28T02:12:14;101517.38;;;14.36;100.00
36014;BME280;22275;43.208;27.620;2023-04-28T02:14:42;101499.97;;;14.87;100.00
36014;BME280;22275;43.208;27.620;2023-04-28T02:17:13;101506.09;;;14.61;100.00
36014;BME280;22275;43.208;27.620;2023-04-28T02:19:41;101512.50;;;14.71;100.00
36014;BME280;22275;43.208;27.620;2023-04-28T02:22:08;101509.34;;;14.92;100.00
36014;BME280;22275;43.208;27.620;2023-04-28T02:24:35;101523.91;;;14.45;100.00
36014;BME280;22275;43.208;27.620;2023-04-28T02:27:02;101518.19;;;14.65;100.00
36014;BME280;22275;43.208;27.620;2023-04-28T02:29:30;101516.38;;;14.38;100.00
36014;BME280;22275;43.208;27.620;2023-04-28T02:31:58;101522.13;;;14.86;100.00
36014;BME280;22275;43.208;27.620;2023-04-28T02:34:27;101522.97;;;15.01;100.00
36014;BME280;22275;43.208;27.620;2023-04-28T02:36:54;101527.44;;;15.13;100.00
36014;BME280;22275;43.208;27.620;2023-04-28T02:39:23;101530.25;;;14.97;100.00
36014;BME280;22275;43.208;27.620;2023-04-28T02:41:51;101525.25;;;15.19;100.00
36014;BME280;22275;43.208;27.620;2023-04-28T02:44:19;101528.94;;;15.17;100.00
36014;BME280;22275;43.208;27.620;2023-04-28T02:46:47;101527.09;;;15.05;100.00
36014;BME280;22275;43.208;27.620;2023-04-28T02:49:15;101521.09;;;15.15;100.00
36014;BME280;22275;43.208;27.620;2023-04-28T02:51:44;101541.25;;;14.64;100.00
36014;BME280;22275;43.208;27.620;2023-04-28T02:54:11;101545.97;;;14.59;100.00
36014;BME280;22275;43.208;27.620;2023-04-28T02:56:40;101533.47;;;14.61;100.00
36014;BME280;22275;43.208;27.620;2023-04-28T02:59:08;101540.03;;;14.42;100.00
36014;BME280;22275;43.208;27.620;2023-04-28T03:01:35;101538.78;;;14.61;100.00
36014;BME280;22275;43.208;27.620;2023-04-28T03:04:03;101546.91;;;14.30;100.00
36014;BME280;22275;43.208;27.620;2023-04-28T03:06:30;101548.16;;;14.24;100.00
36014;BME280;22275;43.208;27.620;2023-04-28T03:08:59;101556.22;;;14.37;100.00
36014;BME280;22275;43.208;27.620;2023-04-28T03:11:28;101549.47;;;14.31;100.00
36014;BME280;22275;43.208;27.620;2023-04-28T03:13:56;101561.00;;;14.16;100.00
36014;BME280;22275;43.208;27.620;2023-04-28T03:16:24;101551.00;;;14.21;100.00
36014;BME280;22275;43.208;27.620;2023-04-28T03:18:51;101561.97;;;14.15;100.00
36014;BME280;22275;43.208;27.620;2023-04-28T03:21:18;101554.72;;;14.33;100.00
36014;BME280;22275;43.208;27.620;2023-04-28T03:23:46;101555.72;;;14.45;100.00
36014;BME280;22275;43.208;27.620;2023-04-28T03:26:15;101556.50;;;14.47;100.00
36014;BME280;22275;43.208;27.620;2023-04-28T03:28:43;101555.69;;;14.30;100.00
36014;BME280;22275;43.208;27.620;2023-04-28T03:31:10;101565.38;;;14.46;100.00
36014;BME280;22275;43.208;27.620;2023-04-28T03:33:38;101573.06;;;14.50;100.00
36014;BME280;22275;43.208;27.620;2023-04-28T03:36:07;101575.06;;;14.47;100.00
36014;BME280;22275;43.208;27.620;2023-04-28T03:38:34;101577.91;;;14.44;100.00
36014;BME280;22275;43.208;27.620;2023-04-28T03:41:01;101581.09;;;14.34;100.00
36014;BME280;22275;43.208;27.620;2023-04-28T03:43:30;101589.22;;;14.31;100.00
36014;BME280;22275;43.208;27.620;2023-04-28T03:45:58;101584.75;;;14.04;100.00
36014;BME280;22275;43.208;27.620;2023-04-28T03:48:25;101593.69;;;14.45;100.00
36014;BME280;22275;43.208;27.620;2023-04-28T03:50:52;101586.75;;;14.71;100.00
36014;BME280;22275;43.208;27.620;2023-04-28T03:53:19;101596.06;;;14.50;100.00
36014;BME280;22275;43.208;27.620;2023-04-28T03:55:47;101596.69;;;14.81;100.00
36014;BME280;22275;43.208;27.620;2023-04-28T03:58:16;101600.00;;;14.85;100.00
36014;BME280;22275;43.208;27.620;2023-04-28T04:00:45;101599.09;;;15.13;100.00
36014;BME280;22275;43.208;27.620;2023-04-28T04:03:13;101592.88;;;15.80;100.00
36014;BME280;22275;43.208;27.620;2023-04-28T04:05:41;101594.50;;;16.33;100.00
36014;BME280;22275;43.208;27.620;2023-04-28T04:08:09;101596.44;;;15.53;100.00
36014;BME280;22275;43.208;27.620;2023-04-28T04:10:36;101612.31;;;15.00;100.00
36014;BME280;22275;43.208;27.620;2023-04-28T04:13:03;101608.28;;;15.07;100.00
36014;BME280;22275;43.208;27.620;2023-04-28T04:15:30;101619.25;;;14.46;100.00
36014;BME280;22275;43.208;27.620;2023-04-28T04:18:00;101618.41;;;14.60;100.00
36014;BME280;22275;43.208;27.620;2023-04-28T04:20:27;101627.88;;;14.35;100.00
36014;BME280;22275;43.208;27.620;2023-04-28T04:22:58;101619.97;;;14.20;100.00
36014;BME280;22275;43.208;27.620;2023-04-28T04:25:26;101615.50;;;14.06;100.00
36014;BME280;22275;43.208;27.620;2023-04-28T04:27:53;101618.97;;;14.65;100.00
36014;BME280;22275;43.208;27.620;2023-04-28T04:30:21;101622.69;;;14.04;100.00
36014;BME280;22275;43.208;27.620;2023-04-28T04:32:48;101620.97;;;14.47;100.00
36014;BME280;22275;43.208;27.620;2023-04-28T04:35:17;101623.06;;;14.12;100.00
36014;BME280;22275;43.208;27.620;2023-04-28T04:37:44;101624.75;;;14.43;100.00
36014;BME280;22275;43.208;27.620;2023-04-28T04:40:12;101607.63;;;15.44;100.00
36014;BME280;22275;43.208;27.620;2023-04-28T04:42:40;101607.38;;;15.35;100.00
36014;BME280;22275;43.208;27.620;2023-04-28T04:45:07;101600.94;;;15.66;100.00
36014;BME280;22275;43.208;27.620;2023-04-28T04:47:34;101617.06;;;15.22;100.00
36014;BME280;22275;43.208;27.620;2023-04-28T04:50:02;101618.31;;;15.57;100.00
36014;BME280;22275;43.208;27.620;2023-04-28T04:52:32;101620.88;;;15.44;100.00
36014;BME280;22275;43.208;27.620;2023-04-28T04:54:59;101624.19;;;15.62;100.00
36014;BME280;22275;43.208;27.620;2023-04-28T04:57:26;101614.94;;;15.68;100.00
36014;BME280;22275;43.208;27.620;2023-04-28T04:59:54;101626.88;;;15.07;100.00
36014;BME280;22275;43.208;27.620;2023-04-28T05:02:24;101623.09;;;15.52;99.15
36014;BME280;22275;43.208;27.620;2023-04-28T05:04:52;101616.59;;;15.83;98.10
36014;BME280;22275;43.208;27.620;2023-04-28T05:07:19;101618.63;;;15.92;98.77
36014;BME280;22275;43.208;27.620;2023-04-28T05:09:48;101619.78;;;15.88;100.00
36014;BME280;22275;43.208;27.620;2023-04-28T05:12:16;101620.03;;;16.10;97.91
36014;BME280;22275;43.208;27.620;2023-04-28T05:14:44;101614.47;;;15.88;100.00
36014;BME280;22275;43.208;27.620;2023-04-28T05:17:11;101612.13;;;15.96;100.00
36014;BME280;22275;43.208;27.620;2023-04-28T05:19:38;101606.75;;;16.23;100.00
36014;BME280;22275;43.208;27.620;2023-04-28T05:22:06;101610.91;;;16.64;98.28
36014;BME280;22275;43.208;27.620;2023-04-28T05:24:36;101611.63;;;16.41;97.48
36014;BME280;22275;43.208;27.620;2023-04-28T05:27:05;101612.16;;;16.72;98.33
36014;BME280;22275;43.208;27.620;2023-04-28T05:29:32;101610.41;;;15.82;90.71
36014;BME280;22275;43.208;27.620;2023-04-28T05:31:59;101608.00;;;15.92;87.12
36014;BME280;22275;43.208;27.620;2023-04-28T05:34:26;101618.00;;;15.62;83.72
36014;BME280;22275;43.208;27.620;2023-04-28T05:36:54;101617.31;;;15.85;85.14
36014;BME280;22275;43.208;27.620;2023-04-28T05:39:21;101620.56;;;16.15;84.97
36014;BME280;22275;43.208;27.620;2023-04-28T05:41:48;101608.88;;;16.30;83.00
36014;BME280;22275;43.208;27.620;2023-04-28T05:44:17;101617.88;;;16.15;80.33
36014;BME280;22275;43.208;27.620;2023-04-28T05:46:46;101617.59;;;15.68;81.95
36014;BME280;22275;43.208;27.620;2023-04-28T05:49:13;101621.72;;;16.24;82.59
36014;BME280;22275;43.208;27.620;2023-04-28T05:51:40;101624.38;;;15.59;78.59
36014;BME280;22275;43.208;27.620;2023-04-28T05:54:08;101619.53;;;15.78;78.74
36014;BME280;22275;43.208;27.620;2023-04-28T05:56:36;101618.06;;;15.74;81.04
36014;BME280;22275;43.208;27.620;2023-04-28T05:59:03;101615.97;;;15.92;79.00
36014;BME280;22275;43.208;27.620;2023-04-28T06:01:32;101614.19;;;16.18;82.16
36014;BME280;22275;43.208;27.620;2023-04-28T06:03:59;101613.44;;;16.28;80.47
36014;BME280;22275;43.208;27.620;2023-04-28T06:06:29;101613.81;;;15.72;77.68
36014;BME280;22275;43.208;27.620;2023-04-28T06:08:56;101613.94;;;15.95;78.26
36014;BME280;22275;43.208;27.620;2023-04-28T06:11:24;101633.13;;;16.38;80.62
36014;BME280;22275;43.208;27.620;2023-04-28T06:13:51;101622.97;;;15.93;75.88
36014;BME280;22275;43.208;27.620;2023-04-28T06:16:18;101620.25;;;16.57;80.18
36014;BME280;22275;43.208;27.620;2023-04-28T06:18:47;101621.56;;;17.37;80.61
36014;BME280;22275;43.208;27.620;2023-04-28T06:21:15;101627.16;;;16.73;78.15
36014;BME280;22275;43.208;27.620;2023-04-28T06:23:42;101619.81;;;16.38;74.57
36014;BME280;22275;43.208;27.620;2023-04-28T06:26:09;101621.41;;;16.79;75.57
36014;BME280;22275;43.208;27.620;2023-04-28T06:28:37;101624.00;;;16.67;75.18
36014;BME280;22275;43.208;27.620;2023-04-28T06:31:04;101618.69;;;17.04;74.77
36014;BME280;22275;43.208;27.620;2023-04-28T06:33:31;101618.38;;;16.59;73.20
36014;BME280;22275;43.208;27.620;2023-04-28T06:36:00;101619.34;;;16.95;74.70
36014;BME280;22275;43.208;27.620;2023-04-28T06:38:28;101616.59;;;17.20;74.51
36014;BME280;22275;43.208;27.620;2023-04-28T06:40:56;101617.22;;;17.36;74.00
36014;BME280;22275;43.208;27.620;2023-04-28T06:43:27;101617.34;;;17.58;71.10
36014;BME280;22275;43.208;27.620;2023-04-28T06:45:54;101622.28;;;17.15;71.35
36014;BME280;22275;43.208;27.620;2023-04-28T06:48:21;101618.25;;;17.10;67.31
36014;BME280;22275;43.208;27.620;2023-04-28T06:50:50;101617.50;;;17.44;68.59
36014;BME280;22275;43.208;27.620;2023-04-28T06:53:19;101610.56;;;16.82;67.52
36014;BME280;22275;43.208;27.620;2023-04-28T06:55:47;101612.25;;;17.55;69.94
36014;BME280;22275;43.208;27.620;2023-04-28T06:58:15;101612.66;;;17.25;65.53
36014;BME280;22275;43.208;27.620;2023-04-28T07:00:42;101617.25;;;17.47;67.34
36014;BME280;22275;43.208;27.620;2023-04-28T07:03:09;101620.97;;;17.21;63.98
36014;BME280;22275;43.208;27.620;2023-04-28T07:05:37;101610.53;;;17.54;63.22
36014;BME280;22275;43.208;27.620;2023-04-28T07:08:05;101620.13;;;17.92;67.20
36014;BME280;22275;43.208;27.620;2023-04-28T07:10:34;101614.53;;;17.84;62.63
36014;BME280;22275;43.208;27.620;2023-04-28T07:13:01;101597.31;;;17.76;62.17
36014;BME280;22275;43.208;27.620;2023-04-28T07:15:29;101610.06;;;17.60;63.10
36014;BME280;22275;43.208;27.620;2023-04-28T07:17:56;101617.56;;;17.55;64.43
36014;BME280;22275;43.208;27.620;2023-04-28T07:20:23;101610.00;;;18.08;63.04
36014;BME280;22275;43.208;27.620;2023-04-28T07:22:51;101603.91;;;17.95;64.80
36014;BME280;22275;43.208;27.620;2023-04-28T07:25:19;101604.41;;;17.65;62.08
36014;BME280;22275;43.208;27.620;2023-04-28T07:27:47;101602.00;;;17.49;61.57
36014;BME280;22275;43.208;27.620;2023-04-28T07:30:15;101595.31;;;17.56;60.78
36014;BME280;22275;43.208;27.620;2023-04-28T07:32:42;101600.31;;;17.72;60.76
36014;BME280;22275;43.208;27.620;2023-04-28T07:35:10;101602.53;;;17.31;59.06
36014;BME280;22275;43.208;27.620;2023-04-28T07:37:37;101588.47;;;17.52;60.64
36014;BME280;22275;43.208;27.620;2023-04-28T07:40:06;101594.41;;;17.32;59.12
36014;BME280;22275;43.208;27.620;2023-04-28T07:42:33;101594.25;;;17.22;57.45
36014;BME280;22275;43.208;27.620;2023-04-28T07:45:03;101602.75;;;17.75;57.99
36014;BME280;22275;43.208;27.620;2023-04-28T07:47:30;101595.06;;;17.59;57.47
36014;BME280;22275;43.208;27.620;2023-04-28T07:49:57;101610.28;;;17.81;54.64
36014;BME280;22275;43.208;27.620;2023-04-28T07:52:29;101598.31;;;17.87;55.66
36014;BME280;22275;43.208;27.620;2023-04-28T07:54:56;101593.94;;;17.86;53.75
36014;BME280;22275;43.208;27.620;2023-04-28T07:57:23;101628.28;;;17.66;55.41
36014;BME280;22275;43.208;27.620;2023-04-28T07:59:53;101580.31;;;18.12;55.06
36014;BME280;22275;43.208;27.620;2023-04-28T08:02:23;101596.41;;;18.11;55.75
36014;BME280;22275;43.208;27.620;2023-04-28T08:04:51;101582.34;;;17.98;54.34
36014;BME280;22275;43.208;27.620;2023-04-28T08:07:19;101605.22;;;17.89;54.93
36014;BME280;22275;43.208;27.620;2023-04-28T08:09:47;101601.84;;;17.63;53.82
36014;BME280;22275;43.208;27.620;2023-04-28T08:12:14;101592.44;;;18.16;55.19
36014;BME280;22275;43.208;27.620;2023-04-28T08:14:42;101603.00;;;18.40;54.10
36014;BME280;22275;43.208;27.620;2023-04-28T08:17:10;101589.44;;;18.32;53.47
36014;BME280;22275;43.208;27.620;2023-04-28T08:19:39;101580.69;;;18.19;55.18
36014;BME280;22275;43.208;27.620;2023-04-28T08:22:06;101576.81;;;18.45;52.67
36014;BME280;22275;43.208;27.620;2023-04-28T08:24:33;101598.28;;;17.75;50.97
36014;BME280;22275;43.208;27.620;2023-04-28T08:27:01;101586.47;;;17.91;52.75
36014;BME280;22275;43.208;27.620;2023-04-28T08:29:28;101605.16;;;18.13;52.33
36014;BME280;22275;43.208;27.620;2023-04-28T08:31:56;101580.53;;;17.98;52.25
36014;BME280;22275;43.208;27.620;2023-04-28T08:34:24;101585.97;;;17.97;51.49
36014;BME280;22275;43.208;27.620;2023-04-28T08:36:53;101592.50;;;18.61;54.89
36014;BME280;22275;43.208;27.620;2023-04-28T08:39:20;101574.63;;;18.39;54.31
36014;BME280;22275;43.208;27.620;2023-04-28T08:41:48;101558.38;;;18.42;50.42
36014;BME280;22275;43.208;27.620;2023-04-28T08:44:17;101564.84;;;17.83;51.36
36014;BME280;22275;43.208;27.620;2023-04-28T08:46:45;101567.22;;;18.09;53.54
36014;BME280;22275;43.208;27.620;2023-04-28T08:49:17;101557.19;;;18.79;50.29
36014;BME280;22275;43.208;27.620;2023-04-28T08:51:57;101569.56;;;18.47;51.16
36014;BME280;22275;43.208;27.620;2023-04-28T08:54:29;101565.19;;;18.46;52.09
36014;BME280;22275;43.208;27.620;2023-04-28T08:56:59;101542.03;;;18.35;51.15
36014;BME280;22275;43.208;27.620;2023-04-28T08:59:27;101549.41;;;18.32;51.54
36014;BME280;22275;43.208;27.620;2023-04-28T09:01:56;101547.38;;;18.58;51.79
36014;BME280;22275;43.208;27.620;2023-04-28T09:04:25;101543.00;;;18.46;51.19
36014;BME280;22275;43.208;27.620;2023-04-28T09:06:53;101547.66;;;19.09;50.40
36014;BME280;22275;43.208;27.620;2023-04-28T09:09:21;101540.94;;;18.38;49.32
36014;BME280;22275;43.208;27.620;2023-04-28T09:11:53;101546.13;;;18.28;49.75
36014;BME280;22275;43.208;27.620;2023-04-28T09:14:21;101549.38;;;19.10;49.21
36014;BME280;22275;43.208;27.620;2023-04-28T09:16:50;101524.78;;;19.16;51.60
36014;BME280;22275;43.208;27.620;2023-04-28T09:19:18;101542.22;;;18.88;49.95
36014;BME280;22275;43.208;27.620;2023-04-28T09:21:49;101542.09;;;19.43;50.53
36014;BME280;22275;43.208;27.620;2023-04-28T09:24:30;101544.59;;;19.13;50.89
36014;BME280;22275;43.208;27.620;2023-04-28T09:27:03;101530.53;;;19.11;49.44
36014;BME280;22275;43.208;27.620;2023-04-28T09:29:32;101539.47;;;18.78;48.95
36014;BME280;22275;43.208;27.620;2023-04-28T09:32:12;101528.16;;;19.40;48.96
36014;BME280;22275;43.208;27.620;2023-04-28T09:34:43;101547.25;;;18.59;48.70
36014;BME280;22275;43.208;27.620;2023-04-28T09:37:15;101545.28;;;18.39;48.98
36014;BME280;22275;43.208;27.620;2023-04-28T09:39:43;101549.78;;;18.27;50.15
36014;BME280;22275;43.208;27.620;2023-04-28T09:42:30;101546.66;;;18.45;49.99
36014;BME280;22275;43.208;27.620;2023-04-28T09:44:58;101526.59;;;18.83;50.50
36014;BME280;22275;43.208;27.620;2023-04-28T09:47:26;101529.88;;;19.19;49.07
36014;BME280;22275;43.208;27.620;2023-04-28T09:49:54;101534.75;;;18.15;50.35
36014;BME280;22275;43.208;27.620;2023-04-28T09:52:22;101515.38;;;18.13;49.11
36014;BME280;22275;43.208;27.620;2023-04-28T09:54:49;101513.97;;;18.85;48.80
36014;BME280;22275;43.208;27.620;2023-04-28T09:57:23;101528.94;;;18.55;50.17
36014;BME280;22275;43.208;27.620;2023-04-28T09:59:52;101529.03;;;18.31;50.77
36014;BME280;22275;43.208;27.620;2023-04-28T10:02:20;101511.31;;;18.85;50.78
36014;BME280;22275;43.208;27.620;2023-04-28T10:04:48;101509.56;;;19.07;48.05
36014;BME280;22275;43.208;27.620;2023-04-28T10:07:17;101500.47;;;19.41;47.87
36014;BME280;22275;43.208;27.620;2023-04-28T10:09:46;101506.13;;;19.47;47.13
36014;BME280;22275;43.208;27.620;2023-04-28T10:12:15;101514.81;;;18.86;49.47
36014;BME280;22275;43.208;27.620;2023-04-28T10:14:45;101511.22;;;18.65;48.92
36014;BME280;22275;43.208;27.620;2023-04-28T10:17:15;101502.28;;;18.98;48.63
36014;BME280;22275;43.208;27.620;2023-04-28T10:19:44;101503.44;;;18.84;46.72
36014;BME280;22275;43.208;27.620;2023-04-28T10:22:32;101502.50;;;19.06;47.49
36014;BME280;22275;43.208;27.620;2023-04-28T10:25:16;101502.25;;;18.66;47.57
36014;BME280;22275;43.208;27.620;2023-04-28T10:27:48;101497.38;;;18.71;48.63
36014;BME280;22275;43.208;27.620;2023-04-28T10:30:19;101495.16;;;19.19;47.93
36014;BME280;22275;43.208;27.620;2023-04-28T10:32:48;101498.13;;;19.05;46.30
36014;BME280;22275;43.208;27.620;2023-04-28T10:35:42;101491.78;;;19.48;48.10
36014;BME280;22275;43.208;27.620;2023-04-28T10:38:11;101492.44;;;19.30;45.86
36014;BME280;22275;43.208;27.620;2023-04-28T10:40:39;101494.06;;;18.89;47.67
36014;BME280;22275;43.208;27.620;2023-04-28T10:43:09;101483.19;;;19.45;45.85
36014;BME280;22275;43.208;27.620;2023-04-28T10:46:00;101486.97;;;20.24;44.83
36014;BME280;22275;43.208;27.620;2023-04-28T10:51:22;101480.94;;;18.98;45.61
36014;BME280;22275;43.208;27.620;2023-04-28T10:59:38;101480.75;;;19.10;45.85
36014;BME280;22275;43.208;27.620;2023-04-28T11:02:40;101479.47;;;19.57;45.27
36014;BME280;22275;43.208;27.620;2023-04-28T11:05:14;101477.56;;;19.48;46.13
36014;BME280;22275;43.208;27.620;2023-04-28T11:11:21;101477.38;;;20.42;44.60
36014;BME280;22275;43.208;27.620;2023-04-28T11:13:51;101491.25;;;19.75;45.07
36014;BME280;22275;43.208;27.620;2023-04-28T11:16:19;101480.28;;;19.78;44.59
36014;BME280;22275;43.208;27.620;2023-04-28T11:18:51;101481.53;;;19.01;43.82
36014;BME280;22275;43.208;27.620;2023-04-28T11:21:19;101491.63;;;18.98;45.49
36014;BME280;22275;43.208;27.620;2023-04-28T11:23:46;101485.34;;;19.72;44.63
36014;BME280;22275;43.208;27.620;2023-04-28T11:26:14;101476.47;;;19.71;43.54
36014;BME280;22275;43.208;27.620;2023-04-28T11:28:48;101468.03;;;19.76;44.55
36014;BME280;22275;43.208;27.620;2023-04-28T11:31:16;101478.53;;;20.19;43.28
36014;BME280;22275;43.208;27.620;2023-04-28T11:33:49;101485.13;;;20.15;43.84
36014;BME280;22275;43.208;27.620;2023-04-28T11:36:30;101470.09;;;19.93;43.10
36014;BME280;22275;43.208;27.620;2023-04-28T11:38:58;101474.81;;;19.59;44.25
36014;BME280;22275;43.208;27.620;2023-04-28T11:41:25;101475.59;;;19.71;43.20
36014;BME280;22275;43.208;27.620;2023-04-28T11:43:53;101468.94;;;20.46;43.46
36014;BME280;22275;43.208;27.620;2023-04-28T11:46:23;101475.84;;;19.88;42.91
36014;BME280;22275;43.208;27.620;2023-04-28T11:49:02;101483.63;;;19.50;43.39
36014;BME280;22275;43.208;27.620;2023-04-28T11:51:33;101475.53;;;19.61;43.78
36014;BME280;22275;43.208;27.620;2023-04-28T11:54:02;101471.91;;;20.53;42.31
36014;BME280;22275;43.208;27.620;2023-04-28T11:56:29;101483.97;;;20.38;42.73
36014;BME280;22275;43.208;27.620;2023-04-28T11:59:01;101479.78;;;20.15;43.36
36014;BME280;22275;43.208;27.620;2023-04-28T12:01:31;101466.50;;;20.03;42.29
36014;BME280;22275;43.208;27.620;2023-04-28T12:03:59;101474.59;;;19.92;42.56
36014;BME280;22275;43.208;27.620;2023-04-28T12:06:26;101465.47;;;19.95;43.92
36014;BME280;22275;43.208;27.620;2023-04-28T12:08:56;101460.06;;;19.55;41.99
36014;BME280;22275;43.208;27.620;2023-04-28T12:11:29;101450.44;;;19.52;42.30
36014;BME280;22275;43.208;27.620;2023-04-28T12:14:03;101451.41;;;20.33;43.63
36014;BME280;22275;43.208;27.620;2023-04-28T12:16:41;101458.53;;;19.92;44.20
36014;BME280;22275;43.208;27.620;2023-04-28T12:19:13;101462.41;;;19.99;44.06
36014;BME280;22275;43.208;27.620;2023-04-28T12:21:41;101451.88;;;20.07;44.06
36014;BME280;22275;43.208;27.620;2023-04-28T12:24:18;101442.88;;;20.18;42.84
36014;BME280;22275;43.208;27.620;2023-04-28T12:26:47;101443.56;;;20.31;41.53
36014;BME280;22275;43.208;27.620;2023-04-28T12:29:36;101457.56;;;20.24;44.13
36014;BME280;22275;43.208;27.620;2023-04-28T12:32:05;101450.66;;;19.40;44.30
36014;BME280;22275;43.208;27.620;2023-04-28T12:34:32;101462.47;;;19.88;44.60
36014;BME280;22275;43.208;27.620;2023-04-28T12:37:02;101435.47;;;19.91;45.06
36014;BME280;22275;43.208;27.620;2023-04-28T12:39:32;101442.06;;;20.18;44.42
36014;BME280;22275;43.208;27.620;2023-04-28T12:42:01;101427.84;;;20.95;44.46
36014;BME280;22275;43.208;27.620;2023-04-28T12:44:31;101435.59;;;20.20;44.29
36014;BME280;22275;43.208;27.620;2023-04-28T12:47:04;101429.59;;;19.97;44.48
36014;BME280;22275;43.208;27.620;2023-04-28T12:49:42;101451.00;;;19.97;45.66
36014;BME280;22275;43.208;27.620;2023-04-28T12:52:09;101440.00;;;19.70;46.23
36014;BME280;22275;43.208;27.620;2023-04-28T12:54:37;101462.59;;;19.25;45.72
36014;BME280;22275;43.208;27.620;2023-04-28T12:57:11;101456.34;;;19.97;45.43